createdAt,value
2022-10-11T00:05:29.364Z,14.47
2022-10-11T00:11:01.229Z,14.50
2022-10-11T00:16:32.985Z,14.51
2022-10-11T00:27:36.454Z,14.57
2022-10-11T00:33:08.624Z,14.61
2022-10-11T00:38:39.951Z,14.64
2022-10-11T00:44:11.376Z,14.70
2022-10-11T00:49:42.742Z,14.75
2022-10-11T00:55:14.329Z,14.79
2022-10-11T01:00:45.940Z,14.89
2022-10-11T01:06:17.743Z,14.95
2022-10-11T01:11:49.454Z,15.02
2022-10-11T01:22:55.660Z,15.09
2022-10-11T01:28:27.476Z,15.10
2022-10-11T01:39:30.981Z,15.13
2022-10-11T01:45:03.054Z,15.17
2022-10-11T02:01:40.855Z,15.26
2022-10-11T02:07:12.849Z,15.33
2022-10-11T02:12:44.506Z,15.34
2022-10-11T02:18:16.435Z,15.40
2022-10-11T02:29:19.817Z,15.43
2022-10-11T02:34:51.623Z,15.46
2022-10-11T02:40:23.528Z,15.53
2022-10-11T02:51:27.273Z,15.54
2022-10-11T02:56:58.721Z,15.56
2022-10-11T03:02:30.712Z,15.56
2022-10-11T03:08:05.021Z,15.57
2022-10-11T03:13:37.062Z,15.57
2022-10-11T03:19:08.668Z,15.60
2022-10-11T03:24:40.597Z,15.64
2022-10-11T03:30:16.118Z,15.61
2022-10-11T03:35:44.183Z,15.61
2022-10-11T03:41:15.998Z,15.61
2022-10-11T03:46:47.640Z,15.64
2022-10-11T03:52:19.531Z,15.64
2022-10-11T03:57:51.339Z,15.69
2022-10-11T04:03:23.219Z,15.65
2022-10-11T04:08:55.144Z,15.69
2022-10-11T04:19:59.073Z,15.75
2022-10-11T04:25:30.831Z,15.74
2022-10-11T04:31:02.376Z,15.74
2022-10-11T04:42:06.756Z,15.79
2022-10-11T05:04:14.491Z,15.76
2022-10-11T05:09:46.756Z,15.75
2022-10-11T05:15:18.852Z,15.72
2022-10-11T05:20:50.515Z,15.71
2022-10-11T05:26:22.342Z,15.72
2022-10-11T05:31:54.018Z,15.71
2022-10-11T05:37:25.846Z,15.71
2022-10-11T05:42:57.683Z,15.71
2022-10-11T05:48:29.548Z,15.71
2022-10-11T05:54:01.379Z,15.75
2022-10-11T05:59:33.805Z,15.75
2022-10-11T06:10:39.591Z,15.85
2022-10-11T06:16:11.242Z,16.09
2022-10-11T06:27:14.506Z,16.50
2022-10-11T06:38:20.098Z,16.52
2022-10-11T06:43:52.466Z,16.52
2022-10-11T06:49:24.500Z,16.62
2022-10-11T06:54:56.481Z,16.69
2022-10-11T07:00:28.326Z,16.89
2022-10-11T07:06:02.751Z,16.98
2022-10-11T07:17:05.667Z,17.27
2022-10-11T07:22:37.460Z,17.54
2022-10-11T07:28:09.252Z,17.60
2022-10-11T07:33:41.024Z,17.74
2022-10-11T07:39:14.786Z,17.76
2022-10-11T07:44:46.675Z,17.92
2022-10-11T07:50:18.916Z,17.96
2022-10-11T07:55:50.739Z,18.14
2022-10-11T08:01:22.352Z,18.50
2022-10-11T08:17:57.761Z,23.47
2022-10-11T08:23:31.024Z,24.03
2022-10-11T08:29:02.881Z,24.79
2022-10-11T08:34:34.675Z,25.07
2022-10-11T08:45:36.034Z,24.30
2022-10-11T08:51:07.694Z,23.47
2022-10-11T08:56:39.569Z,23.10
2022-10-11T09:02:11.457Z,22.47
2022-10-11T09:07:43.250Z,22.28
2022-10-11T09:13:14.927Z,22.02
2022-10-11T09:24:16.229Z,21.59
2022-10-11T09:35:17.517Z,21.13
2022-10-11T09:40:49.230Z,21.02
2022-10-11T09:51:50.829Z,20.89
2022-10-11T09:57:22.684Z,20.72
2022-10-11T10:02:54.928Z,20.67
2022-10-11T10:08:27.028Z,20.74
2022-10-11T10:24:58.124Z,21.05
2022-10-11T10:30:34.516Z,21.29
2022-10-11T10:36:02.005Z,21.38
2022-10-11T10:41:33.642Z,21.62
2022-10-11T10:47:05.542Z,21.70
2022-10-11T10:52:37.348Z,22.03
2022-10-11T10:58:08.938Z,22.13
2022-10-11T11:03:40.791Z,22.30
2022-10-11T11:09:12.669Z,22.34
2022-10-11T11:16:54.544Z,0.00
2022-10-11T11:22:28.054Z,22.45
2022-10-11T11:27:56.728Z,22.50
2022-10-11T11:33:28.254Z,22.65
2022-10-11T11:39:00.166Z,22.85
2022-10-11T11:44:31.782Z,23.30
2022-10-11T11:50:03.565Z,23.47
2022-10-11T11:55:35.386Z,23.57
2022-10-11T12:06:47.705Z,23.26
2022-10-11T12:12:08.559Z,23.10
2022-10-11T12:17:40.121Z,22.96
2022-10-11T12:23:13.183Z,22.89
2022-10-11T12:28:43.703Z,22.82
2022-10-11T12:34:15.595Z,22.83
2022-10-11T12:39:47.489Z,22.75
2022-10-11T12:45:18.844Z,22.68
2022-10-11T12:50:50.293Z,22.33
2022-10-11T12:56:21.918Z,22.13
2022-10-11T13:01:53.753Z,21.80
2022-10-11T13:07:25.499Z,21.72
2022-10-11T13:12:57.300Z,21.51
2022-10-11T13:18:28.917Z,21.31
2022-10-11T13:24:00.829Z,21.13
2022-10-11T13:29:32.709Z,21.00
2022-10-11T13:35:04.509Z,20.82
2022-10-11T13:40:36.273Z,20.79
2022-10-11T13:46:08.856Z,20.86
2022-10-11T13:51:40.536Z,20.85
2022-10-11T13:57:12.418Z,20.89
2022-10-11T14:02:44.174Z,20.90
2022-10-11T14:08:16.503Z,20.86
2022-10-11T14:13:48.373Z,20.79
2022-10-11T14:19:20.197Z,20.67
2022-10-11T14:24:53.735Z,20.52
2022-10-11T14:30:27.120Z,20.45
2022-10-11T14:35:57.502Z,20.40
2022-10-11T14:41:29.294Z,20.35
2022-10-11T14:52:34.855Z,20.17
2022-10-11T15:03:38.615Z,19.90
2022-10-11T15:14:40.689Z,19.55
2022-10-11T15:25:44.234Z,19.44
2022-10-11T15:31:15.706Z,19.41
2022-10-11T15:36:53.595Z,19.35
2022-10-11T15:42:25.613Z,19.19
2022-10-11T15:47:57.839Z,19.09
2022-10-11T15:53:29.742Z,18.86
2022-10-11T16:04:33.708Z,18.61
2022-10-11T16:15:43.971Z,18.33
2022-10-11T16:21:18.415Z,18.23
2022-10-11T16:26:50.630Z,18.12
2022-10-11T16:32:23.136Z,18.06
2022-10-11T16:43:26.878Z,17.99
2022-10-11T16:48:58.656Z,17.95
2022-10-11T16:54:30.387Z,17.88
2022-10-11T17:02:15.513Z,0.00
2022-10-11T17:07:47.272Z,17.81
2022-10-11T17:18:50.865Z,17.65
2022-10-11T17:24:22.960Z,17.58
2022-10-11T17:29:54.654Z,17.45
2022-10-11T17:52:07.140Z,16.96
2022-10-11T17:54:30.684Z,16.93
2022-10-11T18:00:02.170Z,16.88
2022-10-11T18:05:34.131Z,16.76
2022-10-11T18:16:39.701Z,16.69
2022-10-11T18:22:11.893Z,16.64
2022-10-11T18:27:43.745Z,16.59
2022-10-11T18:33:15.686Z,16.55
2022-10-11T18:38:47.864Z,16.54
2022-10-11T18:44:19.564Z,16.48
2022-10-11T18:55:23.144Z,16.45
2022-10-11T19:00:55.080Z,16.43
2022-10-11T19:06:26.725Z,16.41
2022-10-11T19:11:58.743Z,16.41
2022-10-11T19:17:30.763Z,16.41
2022-10-11T19:23:02.666Z,16.41
2022-10-11T19:28:34.326Z,16.36
2022-10-11T19:34:06.144Z,16.39
2022-10-11T19:39:41.795Z,16.43
2022-10-11T19:45:13.526Z,16.41
2022-10-11T19:50:45.600Z,16.45
2022-10-11T19:56:17.896Z,16.43
2022-10-11T20:01:52.999Z,16.44
2022-10-11T20:07:22.119Z,16.44
2022-10-11T20:12:54.133Z,16.44
2022-10-11T20:18:26.001Z,16.39
2022-10-11T20:23:57.693Z,16.39
2022-10-11T20:35:00.503Z,16.37
2022-10-11T20:40:32.213Z,16.34
2022-10-11T20:46:04.010Z,16.29
2022-10-11T20:51:35.605Z,16.21
2022-10-11T20:57:07.383Z,16.12
2022-10-11T21:02:38.796Z,16.09
2022-10-11T21:08:10.392Z,16.05
2022-10-11T21:13:42.191Z,16.05
2022-10-11T21:19:13.780Z,16.08
2022-10-11T21:24:47.181Z,16.06
2022-10-11T21:30:18.981Z,16.05
2022-10-11T21:35:50.702Z,16.05
2022-10-11T21:41:22.222Z,16.00
2022-10-11T21:47:06.628Z,15.97
2022-10-11T21:52:25.956Z,15.97
2022-10-11T21:57:57.908Z,15.97
2022-10-11T22:03:29.625Z,15.89
2022-10-11T22:09:01.477Z,15.88
2022-10-11T22:14:33.226Z,15.82
2022-10-11T22:20:06.189Z,15.76
2022-10-11T22:25:37.913Z,15.72
2022-10-11T22:31:09.619Z,15.68
2022-10-11T22:36:42.702Z,15.60
2022-10-11T22:42:16.810Z,15.54
2022-10-11T22:53:17.579Z,15.40
2022-10-11T22:58:49.138Z,15.30
2022-10-11T23:04:20.737Z,15.24
2022-10-11T23:09:52.139Z,15.17
2022-10-11T23:15:25.586Z,15.02
2022-10-11T23:20:57.180Z,14.99
2022-10-11T23:32:00.042Z,14.78
2022-10-11T23:37:32.067Z,14.68
2022-10-11T23:43:03.806Z,14.61
2022-10-11T23:48:35.294Z,14.60
2022-10-11T23:54:07.122Z,14.56
2022-10-11T23:59:38.771Z,14.53
